Time;durP1;ratioP1;P1;durP2;ratioP2;P2;SDS_P1;SDS_P2;PMS_P1;PMS_P2;Temp;Humidity;BMP_temperature;BMP_pressure;BME280_temperature;BME280_humidity;BME280_pressure;Samples;Min_cycle;Max_cycle;Signal;HPM_P1;HPM_P2
2021/03/12 00:00:26;;;;;;;0.70;0.60;;;5.00;99.90;;;;;;5113842;28;20479;-82
2021/03/12 00:02:52;;;;;;;1.33;0.60;;;5.00;99.90;;;;;;5113770;28;20455;-82
2021/03/12 00:05:19;;;;;;;3.30;0.60;;;5.10;99.90;;;;;;5113765;28;20450;-77
2021/03/12 00:07:45;;;;;;;1.13;0.53;;;5.10;99.90;;;;;;5113807;28;20447;-77
2021/03/12 00:10:13;;;;;;;0.50;0.50;;;5.10;99.90;;;;;;5113775;28;20442;-77
2021/03/12 00:12:40;;;;;;;1.53;0.80;;;5.10;99.90;;;;;;5113763;28;20431;-77
2021/03/12 00:15:09;;;;;;;0.50;0.50;;;5.20;99.90;;;;;;5113752;28;20443;-77
2021/03/12 00:17:35;;;;;;;1.67;0.50;;;5.20;99.90;;;;;;5113350;28;20443;-77
2021/03/12 00:20:03;;;;;;;3.03;0.60;;;5.30;99.90;;;;;;5113656;28;20503;-77
2021/03/12 00:22:29;;;;;;;0.83;0.50;;;5.30;99.90;;;;;;5113417;28;20434;-77
2021/03/12 00:24:56;;;;;;;1.23;0.60;;;5.30;99.90;;;;;;5113609;28;20447;-77
2021/03/12 00:27:22;;;;;;;1.00;0.50;;;5.30;99.90;;;;;;5113380;28;20489;-77
2021/03/12 00:29:49;;;;;;;0.50;0.50;;;5.30;99.90;;;;;;5113128;28;20482;-77
2021/03/12 00:32:15;;;;;;;0.50;0.50;;;5.30;99.90;;;;;;5113533;28;20447;-77
2021/03/12 00:34:41;;;;;;;0.60;0.60;;;5.30;99.90;;;;;;5113735;28;20447;-86
2021/03/12 00:37:08;;;;;;;1.37;0.60;;;5.30;99.90;;;;;;5116906;28;20459;-86
2021/03/12 00:39:34;;;;;;;2.23;0.87;;;5.20;99.90;;;;;;5117825;28;20488;-85
2021/03/12 00:42:00;;;;;;;2.67;0.70;;;5.30;99.90;;;;;;5117687;28;20443;-86
2021/03/12 00:44:27;;;;;;;1.87;0.60;;;5.30;99.90;;;;;;5117653;28;20453;-85
2021/03/12 00:46:54;;;;;;;0.80;0.60;;;5.30;99.90;;;;;;5117379;28;20486;-85
2021/03/12 00:49:22;;;;;;;1.27;0.70;;;5.30;99.90;;;;;;5117642;28;20431;-85
2021/03/12 00:51:48;;;;;;;3.33;0.60;;;5.30;99.90;;;;;;5118031;28;20840;-85
2021/03/12 00:54:15;;;;;;;3.03;0.63;;;5.40;99.90;;;;;;5117039;27;20457;-77
2021/03/12 00:56:41;;;;;;;1.00;0.60;;;5.40;99.90;;;;;;5117133;28;20611;-77
2021/03/12 00:59:07;;;;;;;1.30;0.60;;;5.50;99.90;;;;;;5116867;28;20457;-77
2021/03/12 01:01:33;;;;;;;1.63;0.50;;;5.50;99.90;;;;;;5116815;28;20447;-77
2021/03/12 01:04:00;;;;;;;3.17;0.70;;;5.60;99.90;;;;;;5116803;28;20454;-77
2021/03/12 01:06:27;;;;;;;0.87;0.60;;;5.60;99.90;;;;;;5116582;28;20483;-81
2021/03/12 01:08:53;;;;;;;2.97;0.60;;;5.50;99.90;;;;;;5117011;28;20440;-81
2021/03/12 01:11:19;;;;;;;0.50;0.50;;;5.50;99.90;;;;;;5117060;28;20484;-85
2021/03/12 01:13:46;;;;;;;3.93;0.60;;;5.60;99.90;;;;;;5117106;28;20477;-85
2021/03/12 01:16:12;;;;;;;0.50;0.50;;;5.60;99.90;;;;;;5116732;28;20459;-85
2021/03/12 01:18:38;;;;;;;4.30;0.50;;;5.60;99.90;;;;;;5116956;28;20449;-85
2021/03/12 01:21:06;;;;;;;2.10;0.60;;;5.70;99.90;;;;;;5116692;28;20447;-85
2021/03/12 01:23:32;;;;;;;4.50;0.50;;;5.70;99.90;;;;;;5116700;28;20941;-85
2021/03/12 01:25:59;;;;;;;0.50;0.50;;;5.90;99.90;;;;;;5116896;27;20535;-85
2021/03/12 01:28:25;;;;;;;2.57;0.60;;;5.80;99.90;;;;;;5116632;28;20478;-84
2021/03/12 01:30:51;;;;;;;2.20;0.60;;;5.80;99.90;;;;;;5116731;28;20447;-85
2021/03/12 01:33:18;;;;;;;0.93;0.47;;;5.80;99.90;;;;;;5116698;28;20443;-85
2021/03/12 01:35:44;;;;;;;0.80;0.60;;;5.80;99.90;;;;;;5116631;28;20467;-85
2021/03/12 01:38:12;;;;;;;1.00;0.50;;;5.80;99.90;;;;;;5116434;28;20431;-85
2021/03/12 01:40:41;;;;;;;1.27;0.60;;;5.80;99.90;;;;;;5116635;27;20443;-85
2021/03/12 01:43:08;;;;;;;2.17;0.50;;;5.80;99.90;;;;;;5116631;28;20450;-85
2021/03/12 01:45:37;;;;;;;1.63;0.50;;;5.80;99.90;;;;;;5116363;28;20470;-85
2021/03/12 01:48:07;;;;;;;1.60;0.60;;;5.90;99.90;;;;;;5115443;28;20511;-85
2021/03/12 01:50:33;;;;;;;1.33;0.60;;;5.90;99.90;;;;;;5116349;28;20443;-85
2021/03/12 01:52:59;;;;;;;0.73;0.50;;;6.00;99.90;;;;;;5116114;28;20942;-85
2021/03/12 01:55:31;;;;;;;0.73;0.60;;;5.90;99.90;;;;;;5116256;28;20501;-85
2021/03/12 01:57:58;;;;;;;0.70;0.50;;;5.90;99.90;;;;;;5116225;28;20427;-85
2021/03/12 02:00:25;;;;;;;1.00;0.50;;;5.90;99.90;;;;;;5116245;28;20447;-85
2021/03/12 02:02:51;;;;;;;6.90;0.70;;;5.80;99.90;;;;;;5116123;28;20443;-86
2021/03/12 02:05:18;;;;;;;1.33;0.60;;;5.90;99.90;;;;;;5115941;28;20420;-86
2021/03/12 02:07:45;;;;;;;1.63;0.63;;;5.90;99.90;;;;;;5115818;28;20478;-85
2021/03/12 02:10:14;;;;;;;0.50;0.50;;;5.90;99.90;;;;;;5116050;28;20466;-86
2021/03/12 02:12:47;;;;;;;0.50;0.50;;;5.80;99.90;;;;;;5115977;28;20521;-85
2021/03/12 02:15:18;;;;;;;1.53;0.60;;;5.80;99.90;;;;;;5115894;28;20533;-86
2021/03/12 02:17:51;;;;;;;9.73;0.63;;;5.80;99.90;;;;;;5115929;28;20794;-85
2021/03/12 02:20:38;;;;;;;1.07;0.60;;;5.80;99.90;;;;;;5116465;28;20827;-78
2021/03/12 02:23:17;;;;;;;1.33;0.50;;;5.80;99.90;;;;;;5115557;28;20450;-77
2021/03/12 02:25:52;;;;;;;1.80;0.50;;;5.80;99.90;;;;;;5115591;28;20466;-85
2021/03/12 02:28:21;;;;;;;1.17;0.50;;;5.80;99.90;;;;;;5115420;28;20547;-85
2021/03/12 02:30:48;;;;;;;3.27;0.60;;;5.70;99.90;;;;;;5115450;28;20935;-86
2021/03/12 02:33:14;;;;;;;0.83;0.60;;;5.70;99.90;;;;;;5115540;28;20447;-86
2021/03/12 02:35:41;;;;;;;0.90;0.40;;;5.80;99.90;;;;;;5115390;28;20474;-85
2021/03/12 02:38:08;;;;;;;1.57;0.50;;;5.80;99.90;;;;;;5115563;28;20442;-86
2021/03/12 02:40:36;;;;;;;2.23;0.57;;;5.80;99.90;;;;;;5115637;28;20439;-86
2021/03/12 02:43:03;;;;;;;1.20;0.50;;;5.70;99.90;;;;;;5115485;28;20447;-86
2021/03/12 02:45:30;;;;;;;0.50;0.50;;;5.70;99.90;;;;;;5115541;28;20443;-85
2021/03/12 02:47:57;;;;;;;4.03;0.70;;;5.70;99.90;;;;;;5115284;28;20538;-86
2021/03/12 02:50:24;;;;;;;1.67;0.63;;;5.70;99.90;;;;;;5115278;27;20492;-77
2021/03/12 02:52:52;;;;;;;1.63;0.50;;;5.70;99.90;;;;;;5114642;28;20999;-77
2021/03/12 02:55:19;;;;;;;1.03;0.80;;;5.70;99.90;;;;;;5114525;28;20443;-77
2021/03/12 02:57:46;;;;;;;4.57;0.70;;;5.70;99.90;;;;;;5114579;27;20808;-77
2021/03/12 03:00:14;;;;;;;2.30;0.40;;;5.60;99.90;;;;;;5114607;28;20500;-78
2021/03/12 03:02:42;;;;;;;1.93;0.60;;;5.70;99.90;;;;;;5114826;28;20458;-85
2021/03/12 03:05:09;;;;;;;2.83;0.53;;;5.60;99.90;;;;;;5115026;28;20480;-85
2021/03/12 03:07:36;;;;;;;0.60;0.50;;;5.60;99.90;;;;;;5114713;28;20483;-78
2021/03/12 03:10:09;;;;;;;1.27;0.50;;;5.60;99.90;;;;;;5114443;28;20942;-86
2021/03/12 03:12:35;;;;;;;0.83;0.53;;;5.50;99.90;;;;;;5114824;28;20427;-85
2021/03/12 03:15:04;;;;;;;2.10;0.90;;;5.40;99.90;;;;;;5114541;28;20949;-85
2021/03/12 03:17:35;;;;;;;1.40;0.50;;;5.40;99.90;;;;;;5114435;28;20470;-86
2021/03/12 03:20:06;;;;;;;0.60;0.50;;;5.30;99.90;;;;;;5114574;28;20937;-86
2021/03/12 03:22:33;;;;;;;1.80;0.50;;;5.30;99.90;;;;;;5114843;28;20439;-86
2021/03/12 03:25:00;;;;;;;4.20;0.67;;;5.20;99.90;;;;;;5114763;27;20447;-86
2021/03/12 03:27:26;;;;;;;1.90;0.50;;;5.10;99.90;;;;;;5114395;27;20482;-85
2021/03/12 03:29:53;;;;;;;0.80;0.50;;;5.10;99.90;;;;;;5114499;28;20977;-86
2021/03/12 03:32:19;;;;;;;2.50;0.87;;;5.10;99.90;;;;;;5114611;28;20453;-85
2021/03/12 03:34:45;;;;;;;3.70;0.60;;;5.10;99.90;;;;;;5114361;28;20976;-83
2021/03/12 03:37:12;;;;;;;1.80;0.60;;;5.10;99.90;;;;;;5114087;28;20466;-81
2021/03/12 03:39:39;;;;;;;0.50;0.50;;;5.00;99.90;;;;;;5113832;28;21002;-81
2021/03/12 03:42:07;;;;;;;2.77;0.40;;;5.00;99.90;;;;;;5114048;28;20447;-77
2021/03/12 03:44:35;;;;;;;0.50;0.50;;;5.00;99.90;;;;;;5114083;28;20443;-77
2021/03/12 03:47:05;;;;;;;1.73;0.70;;;5.00;99.90;;;;;;5113572;28;20481;-78
2021/03/12 03:49:35;;;;;;;1.10;0.80;;;5.00;99.90;;;;;;5114143;28;20450;-85
2021/03/12 03:52:03;;;;;;;0.40;0.40;;;5.00;99.90;;;;;;5114476;28;20779;-78
2021/03/12 03:54:31;;;;;;;0.43;0.43;;;5.10;99.90;;;;;;5113944;28;20447;-81
2021/03/12 03:56:59;;;;;;;0.87;0.50;;;5.10;99.90;;;;;;5113616;28;20989;-82
2021/03/12 03:59:26;;;;;;;0.60;0.50;;;5.20;99.90;;;;;;5113875;28;20443;-81
2021/03/12 04:01:53;;;;;;;4.33;1.03;;;5.20;99.90;;;;;;5113618;28;20492;-79
2021/03/12 04:04:21;;;;;;;0.60;0.60;;;5.30;99.90;;;;;;5113850;28;20447;-78
2021/03/12 04:06:48;;;;;;;1.43;0.50;;;5.30;99.90;;;;;;5113726;28;20539;-78
2021/03/12 04:09:15;;;;;;;4.60;1.00;;;5.40;99.90;;;;;;5113529;28;20450;-78
2021/03/12 04:11:43;;;;;;;2.20;0.60;;;5.40;99.90;;;;;;5116291;27;20447;-78
2021/03/12 04:14:11;;;;;;;4.70;0.60;;;5.40;99.90;;;;;;5118047;27;20447;-78
2021/03/12 04:16:38;;;;;;;3.50;0.80;;;5.40;99.90;;;;;;5117564;28;21039;-79
2021/03/12 04:19:06;;;;;;;2.57;0.80;;;5.40;99.90;;;;;;5117918;28;20504;-78
2021/03/12 04:21:32;;;;;;;1.80;0.60;;;5.50;99.90;;;;;;5117936;28;20457;-78
2021/03/12 04:23:59;;;;;;;1.37;0.90;;;5.50;99.90;;;;;;5117610;28;20954;-77
2021/03/12 04:26:26;;;;;;;1.83;0.70;;;5.40;99.90;;;;;;5117666;28;20474;-81
2021/03/12 04:28:53;;;;;;;1.70;0.60;;;5.40;99.90;;;;;;5117233;28;20478;-81
2021/03/12 04:31:21;;;;;;;1.13;0.60;;;5.40;99.90;;;;;;5117744;28;20458;-78
2021/03/12 04:33:47;;;;;;;2.73;0.60;;;5.40;99.90;;;;;;5117406;28;20475;-79
2021/03/12 04:36:15;;;;;;;0.50;0.50;;;5.40;99.90;;;;;;5117228;28;20819;-78
2021/03/12 04:38:42;;;;;;;3.03;0.70;;;5.40;99.90;;;;;;5118157;27;20500;-78
2021/03/12 04:41:10;;;;;;;1.07;0.60;;;5.30;99.90;;;;;;5117579;28;20447;-77
2021/03/12 04:43:38;;;;;;;0.80;0.60;;;5.30;99.90;;;;;;5117492;28;20451;-77
2021/03/12 04:46:05;;;;;;;1.20;0.60;;;5.30;99.90;;;;;;5117336;28;20470;-78
2021/03/12 04:48:32;;;;;;;5.13;0.60;;;5.20;99.90;;;;;;5117386;28;20443;-81
2021/03/12 04:50:58;;;;;;;2.93;0.87;;;5.20;99.90;;;;;;5117019;28;20447;-81
2021/03/12 04:53:28;;;;;;;1.50;0.70;;;5.20;99.90;;;;;;5117329;28;20446;-82
2021/03/12 04:55:54;;;;;;;2.40;0.60;;;5.10;99.90;;;;;;5117198;28;20466;-81
2021/03/12 04:58:20;;;;;;;0.80;0.60;;;5.00;99.90;;;;;;5117782;28;20449;-82
2021/03/12 05:00:47;;;;;;;2.20;0.60;;;5.00;99.90;;;;;;5117181;28;20451;-82
2021/03/12 05:03:14;;;;;;;2.50;0.50;;;4.90;99.90;;;;;;5116817;28;20446;-81
2021/03/12 05:05:41;;;;;;;2.00;0.50;;;4.80;99.90;;;;;;5116720;27;20985;-81
2021/03/12 05:08:08;;;;;;;1.70;0.80;;;4.80;99.90;;;;;;5116614;28;20482;-82
2021/03/12 05:10:35;;;;;;;5.50;0.70;;;4.80;99.90;;;;;;5116942;28;20454;-82
2021/03/12 05:13:03;;;;;;;1.67;0.50;;;4.70;99.90;;;;;;5116618;28;20949;-81
2021/03/12 05:15:29;;;;;;;1.50;0.70;;;4.80;99.90;;;;;;5116768;28;20458;-81
2021/03/12 05:17:56;;;;;;;2.17;0.50;;;4.70;99.90;;;;;;5116612;28;20435;-82
2021/03/12 05:20:24;;;;;;;2.43;0.60;;;4.70;99.90;;;;;;5116809;28;20819;-82
2021/03/12 05:22:51;;;;;;;3.40;0.50;;;4.60;99.90;;;;;;5116310;28;20962;-82
2021/03/12 05:25:17;;;;;;;0.60;0.60;;;4.50;99.90;;;;;;5116285;28;20961;-82
2021/03/12 05:27:43;;;;;;;3.17;0.73;;;4.50;99.90;;;;;;5116077;28;20471;-81
2021/03/12 05:30:11;;;;;;;2.00;0.50;;;4.40;99.90;;;;;;5116601;28;20438;-78
2021/03/12 05:32:37;;;;;;;3.10;0.63;;;4.40;99.90;;;;;;5116827;28;20451;-86
2021/03/12 05:35:04;;;;;;;1.37;0.60;;;4.30;99.90;;;;;;5117037;28;20438;-87
2021/03/12 05:37:31;;;;;;;3.60;0.60;;;4.40;99.90;;;;;;5116636;28;20459;-87
2021/03/12 05:39:58;;;;;;;0.60;0.50;;;4.40;99.90;;;;;;5116881;28;20443;-82
2021/03/12 05:42:25;;;;;;;1.80;0.50;;;4.30;99.90;;;;;;5116315;28;20447;-81
2021/03/12 05:44:54;;;;;;;1.30;0.70;;;4.40;99.90;;;;;;5116318;28;20450;-82
2021/03/12 05:47:21;;;;;;;0.60;0.60;;;4.40;99.90;;;;;;5116117;28;20526;-81
2021/03/12 05:49:48;;;;;;;2.97;0.50;;;4.50;99.90;;;;;;5116085;28;20862;-81
2021/03/12 05:52:15;;;;;;;2.30;0.40;;;4.50;99.90;;;;;;5116838;28;20504;-81
2021/03/12 05:54:44;;;;;;;4.83;0.50;;;4.50;99.90;;;;;;5116087;28;20458;-81
2021/03/12 05:57:10;;;;;;;7.60;0.50;;;4.50;99.90;;;;;;5116009;27;20455;-81
2021/03/12 05:59:39;;;;;;;1.70;0.60;;;4.60;99.90;;;;;;5116066;28;20858;-81
2021/03/12 06:02:05;;;;;;;1.70;0.70;;;4.60;99.90;;;;;;5115992;28;20805;-81
2021/03/12 06:04:31;;;;;;;2.50;0.60;;;4.60;99.90;;;;;;5116518;28;20450;-88
2021/03/12 06:06:58;;;;;;;1.17;0.60;;;4.70;99.90;;;;;;5116311;28;20490;-87
2021/03/12 06:09:24;;;;;;;3.53;0.70;;;4.70;99.90;;;;;;5116728;28;20964;-87
2021/03/12 06:11:53;;;;;;;5.57;0.60;;;4.70;99.90;;;;;;5116251;28;20451;-88
2021/03/12 06:14:19;;;;;;;1.10;0.60;;;4.70;99.90;;;;;;5117002;28;20934;-88
2021/03/12 06:16:49;;;;;;;7.70;0.67;;;4.70;99.90;;;;;;5115996;28;20459;-87
2021/03/12 06:19:17;;;;;;;1.00;0.70;;;4.80;99.90;;;;;;5116234;28;20447;-88
2021/03/12 06:21:45;;;;;;;1.33;0.77;;;4.90;99.90;;;;;;5116191;28;20446;-88
2021/03/12 06:24:29;;;;;;;1.63;0.63;;;5.10;99.90;;;;;;5116392;28;20443;-87
2021/03/12 06:26:56;;;;;;;0.50;0.50;;;5.50;99.90;;;;;;5116016;28;20897;-88
2021/03/12 06:29:33;;;;;;;0.70;0.60;;;5.90;99.90;;;;;;5115689;28;20483;-86
2021/03/12 06:32:01;;;;;;;2.87;0.70;;;6.20;99.90;;;;;;5115709;28;20964;-87
2021/03/12 06:34:28;;;;;;;4.90;0.93;;;6.30;99.90;;;;;;5115032;28;20435;-82
2021/03/12 06:36:54;;;;;;;0.90;0.60;;;6.10;99.90;;;;;;5115838;28;20471;-87
2021/03/12 06:39:30;;;;;;;1.33;0.70;;;5.90;99.90;;;;;;5115833;28;20646;-80
2021/03/12 06:41:57;;;;;;;1.17;0.50;;;5.70;99.90;;;;;;5114910;28;20438;-77
2021/03/12 06:44:30;;;;;;;1.07;0.60;;;5.60;99.90;;;;;;5115118;28;20447;-77
2021/03/12 06:46:57;;;;;;;1.07;0.50;;;5.50;99.90;;;;;;5114963;28;20483;-81
2021/03/12 06:49:24;;;;;;;1.67;0.50;;;5.40;99.90;;;;;;5115026;28;20439;-81
2021/03/12 06:51:58;;;;;;;1.60;0.60;;;5.20;99.90;;;;;;5114948;28;20504;-81
2021/03/12 06:54:26;;;;;;;0.63;0.40;;;5.00;99.90;;;;;;5114908;28;20438;-81
2021/03/12 06:56:52;;;;;;;3.20;1.03;;;4.80;99.90;;;;;;5114541;28;20985;-81
2021/03/12 06:59:28;;;;;;;0.80;0.53;;;4.70;99.90;;;;;;5114562;28;20435;-81
2021/03/12 07:01:58;;;;;;;1.33;0.70;;;4.60;99.90;;;;;;5114465;28;20455;-81
2021/03/12 07:04:26;;;;;;;3.23;0.90;;;4.60;99.90;;;;;;5114440;28;20437;-81
2021/03/12 07:06:52;;;;;;;1.80;0.60;;;4.60;99.90;;;;;;5114416;28;20479;-81
2021/03/12 07:09:19;;;;;;;0.60;0.50;;;4.70;99.90;;;;;;5114642;28;20443;-81
2021/03/12 07:11:52;;;;;;;1.30;0.70;;;4.90;99.90;;;;;;5114285;28;20447;-81
2021/03/12 07:14:19;;;;;;;2.00;0.73;;;5.00;99.90;;;;;;5114897;28;20782;-83
2021/03/12 07:16:46;;;;;;;0.70;0.70;;;5.20;99.90;;;;;;5114560;28;20473;-83
2021/03/12 07:19:13;;;;;;;1.53;0.70;;;5.20;99.90;;;;;;5114501;28;20428;-82
2021/03/12 07:21:41;;;;;;;0.60;0.50;;;5.30;99.90;;;;;;5114447;28;20443;-83
2021/03/12 07:24:10;;;;;;;0.97;0.50;;;5.40;99.90;;;;;;5114425;28;20795;-83
2021/03/12 07:26:44;;;;;;;1.00;0.47;;;5.50;99.90;;;;;;5114201;27;20509;-83
2021/03/12 07:29:12;;;;;;;0.70;0.40;;;5.60;99.90;;;;;;5113894;28;21007;-83
2021/03/12 07:31:41;;;;;;;1.10;0.50;;;5.80;99.90;;;;;;5114249;28;20458;-83
2021/03/12 07:34:13;;;;;;;0.50;0.40;;;5.90;99.90;;;;;;5114322;28;20958;-83
2021/03/12 07:36:45;;;;;;;0.57;0.50;;;5.90;99.90;;;;;;5114209;28;20463;-83
2021/03/12 07:39:15;;;;;;;0.40;0.40;;;5.90;99.90;;;;;;5113816;28;20961;-83
2021/03/12 07:41:42;;;;;;;2.20;0.67;;;5.80;99.90;;;;;;5114574;28;20428;-83
2021/03/12 07:44:12;;;;;;;1.10;0.50;;;5.80;99.90;;;;;;5114130;28;20424;-83
2021/03/12 07:46:40;;;;;;;1.33;0.50;;;5.80;99.90;;;;;;5112764;28;20986;-82
2021/03/12 07:49:34;;;;;;;1.50;0.40;;;5.90;99.90;;;;;;5113995;28;20523;-83
2021/03/12 07:52:02;;;;;;;1.73;0.60;;;5.90;99.90;;;;;;5114059;28;20430;-83
2021/03/12 07:54:47;;;;;;;0.50;0.47;;;6.10;99.90;;;;;;5113669;28;20985;-83
2021/03/12 07:57:14;;;;;;;3.60;0.60;;;6.10;99.90;;;;;;5113969;28;20469;-82
2021/03/12 08:00:00;;;;;;;0.83;0.50;;;6.20;99.90;;;;;;5113716;27;20776;-82
2021/03/12 08:02:53;;;;;;;0.90;0.70;;;6.20;99.90;;;;;;5113885;28;20446;-82
2021/03/12 08:05:31;;;;;;;1.40;0.70;;;6.20;99.90;;;;;;5114315;28;20437;-83
2021/03/12 08:07:58;;;;;;;0.60;0.43;;;6.30;99.90;;;;;;5113748;28;20478;-82
2021/03/12 08:10:25;;;;;;;1.17;0.50;;;6.30;99.90;;;;;;5113842;28;20501;-82
2021/03/12 08:12:51;;;;;;;0.50;0.40;;;6.30;99.90;;;;;;5113820;28;20438;-83
2021/03/12 08:15:20;;;;;;;1.00;0.83;;;6.40;99.90;;;;;;5113360;28;20962;-83
2021/03/12 08:17:47;;;;;;;1.27;0.60;;;6.40;99.90;;;;;;5113726;28;20439;-82
2021/03/12 08:20:32;;;;;;;1.27;0.60;;;6.40;99.90;;;;;;5113718;28;20443;-83
2021/03/12 08:22:59;;;;;;;2.13;0.60;;;6.50;99.90;;;;;;5113954;28;20825;-82
2021/03/12 08:25:44;;;;;;;1.20;0.63;;;6.60;99.90;;;;;;5113572;28;20617;-82
2021/03/12 08:28:26;;;;;;;0.50;0.50;;;6.70;99.90;;;;;;5112854;28;20491;-82
2021/03/12 08:30:54;;;;;;;2.30;0.60;;;6.80;99.90;;;;;;5113658;28;20842;-82
2021/03/12 08:33:32;;;;;;;1.67;0.70;;;7.10;99.90;;;;;;5113774;28;20443;-82
2021/03/12 08:36:00;;;;;;;1.07;0.50;;;7.40;99.90;;;;;;5113803;28;20458;-83
2021/03/12 08:38:40;;;;;;;1.73;0.80;;;7.50;99.90;;;;;;5113560;28;20443;-83
2021/03/12 08:41:15;;;;;;;4.23;0.80;;;7.70;99.90;;;;;;5113582;28;20454;-82
2021/03/12 08:43:45;;;;;;;3.40;0.70;;;7.80;99.90;;;;;;5113616;28;20515;-82
2021/03/12 08:46:15;;;;;;;0.70;0.50;;;8.00;99.90;;;;;;5113057;28;20836;-82
2021/03/12 08:48:41;;;;;;;4.37;0.63;;;8.00;99.90;;;;;;5113719;28;20437;-82
2021/03/12 08:51:12;;;;;;;1.80;0.50;;;8.00;99.90;;;;;;5113367;28;20906;-82
2021/03/12 08:53:40;;;;;;;3.10;0.60;;;8.00;99.90;;;;;;5113610;28;20435;-82
2021/03/12 08:56:08;;;;;;;2.23;0.60;;;7.90;99.90;;;;;;5113326;28;20475;-82
2021/03/12 08:58:35;;;;;;;2.10;0.60;;;7.90;99.90;;;;;;5116774;28;20431;-80
2021/03/12 09:01:10;;;;;;;0.73;0.50;;;7.90;99.90;;;;;;5117248;28;20435;-80
2021/03/12 09:03:36;;;;;;;1.13;0.50;;;8.50;99.90;;;;;;5116897;28;20846;-79
2021/03/12 09:06:06;;;;;;;2.60;0.60;;;9.00;99.90;;;;;;5117307;28;20479;-86
2021/03/12 09:08:34;;;;;;;2.30;0.70;;;9.00;99.90;;;;;;5117530;28;20830;-86
2021/03/12 09:11:01;;;;;;;1.90;1.00;;;9.00;99.90;;;;;;5117473;28;20434;-86
2021/03/12 09:13:29;;;;;;;1.20;0.60;;;8.90;99.90;;;;;;5117290;28;20913;-87
2021/03/12 09:15:57;;;;;;;2.30;0.60;;;8.80;99.90;;;;;;5117224;27;20466;-86
2021/03/12 09:18:24;;;;;;;2.60;0.50;;;8.70;99.90;;;;;;5117456;28;20878;-87
2021/03/12 09:20:54;;;;;;;1.50;0.60;;;8.70;99.90;;;;;;5116867;28;20431;-87
2021/03/12 09:23:33;;;;;;;3.00;0.50;;;8.60;99.90;;;;;;5117103;28;20883;-86
2021/03/12 09:26:01;;;;;;;2.87;0.50;;;8.50;99.90;;;;;;5116968;28;20557;-78
2021/03/12 09:28:29;;;;;;;1.77;0.50;;;8.40;99.90;;;;;;5116215;28;20495;-78
2021/03/12 09:30:56;;;;;;;1.73;0.60;;;8.50;99.90;;;;;;5116630;28;20483;-77
2021/03/12 09:33:31;;;;;;;1.73;0.50;;;8.50;99.90;;;;;;5116739;28;20786;-82
2021/03/12 09:35:59;;;;;;;2.37;0.90;;;8.60;99.90;;;;;;5116735;28;20470;-82
2021/03/12 09:38:37;;;;;;;0.60;0.47;;;8.90;99.90;;;;;;5116670;28;20423;-81
2021/03/12 09:41:17;;;;;;;0.50;0.40;;;9.50;99.90;;;;;;5116491;28;20523;-82
2021/03/12 09:43:46;;;;;;;4.73;0.60;;;9.80;99.90;;;;;;5116962;28;20456;-86
2021/03/12 09:46:15;;;;;;;1.37;0.50;;;10.00;99.20;;;;;;5116301;28;20463;-86
2021/03/12 09:48:43;;;;;;;2.00;0.70;;;9.70;98.70;;;;;;5116673;28;21057;-86
2021/03/12 09:51:11;;;;;;;1.57;0.60;;;9.70;99.50;;;;;;5116677;28;20427;-77
2021/03/12 09:53:37;;;;;;;2.50;0.60;;;9.60;99.90;;;;;;5116209;28;20442;-77
2021/03/12 09:56:04;;;;;;;1.93;0.50;;;9.40;99.70;;;;;;5116029;28;20481;-77
2021/03/12 09:58:32;;;;;;;1.20;0.70;;;9.20;99.90;;;;;;5115885;27;20411;-77
2021/03/12 10:01:12;;;;;;;1.63;0.60;;;9.00;99.90;;;;;;5116141;28;20431;-78
2021/03/12 10:03:38;;;;;;;2.30;0.80;;;8.80;99.90;;;;;;5115749;28;20422;-79
2021/03/12 10:06:09;;;;;;;1.33;0.60;;;8.50;99.90;;;;;;5115867;28;20467;-80
2021/03/12 10:08:50;;;;;;;2.30;0.50;;;8.30;99.90;;;;;;5114799;28;20472;-80
2021/03/12 10:11:16;;;;;;;2.57;0.53;;;7.80;99.90;;;;;;5115340;28;20447;-80
2021/03/12 10:13:43;;;;;;;4.50;0.70;;;7.50;99.90;;;;;;5115875;28;20424;-80
2021/03/12 10:16:12;;;;;;;2.10;0.50;;;7.90;99.90;;;;;;5115690;28;20463;-79
2021/03/12 10:18:38;;;;;;;2.17;0.60;;;8.50;99.90;;;;;;5115645;28;20439;-80
2021/03/12 10:21:08;;;;;;;0.77;0.60;;;8.90;99.90;;;;;;5115674;28;20428;-80
2021/03/12 10:23:35;;;;;;;4.00;0.70;;;9.50;99.90;;;;;;5115491;28;20995;-80
2021/03/12 10:26:05;;;;;;;1.73;0.90;;;10.40;99.90;;;;;;5115239;28;20461;-80
2021/03/12 10:28:32;;;;;;;4.07;0.70;;;11.00;99.90;;;;;;5115278;28;20491;-79
2021/03/12 10:31:00;;;;;;;0.77;0.50;;;11.70;99.90;;;;;;5115467;28;20466;-80
2021/03/12 10:33:29;;;;;;;2.00;0.50;;;12.10;99.90;;;;;;5115486;28;20464;-81
2021/03/12 10:35:56;;;;;;;0.90;0.60;;;12.40;99.90;;;;;;5116470;27;20800;-85
2021/03/12 10:38:24;;;;;;;2.83;0.50;;;12.70;99.90;;;;;;5115157;28;20453;-83
2021/03/12 10:40:53;;;;;;;1.73;0.60;;;12.80;99.90;;;;;;5115079;28;20917;-83
2021/03/12 10:43:21;;;;;;;2.40;0.80;;;13.40;99.90;;;;;;5115240;28;20805;-83
2021/03/12 10:45:49;;;;;;;1.43;0.60;;;13.90;99.90;;;;;;5115227;28;20776;-83
2021/03/12 10:48:18;;;;;;;1.50;0.40;;;14.80;99.90;;;;;;5114719;28;20973;-83
2021/03/12 10:50:51;;;;;;;1.10;0.40;;;16.40;95.20;;;;;;5115082;27;20596;-83
2021/03/12 10:53:18;;;;;;;1.40;1.30;;;18.30;85.50;;;;;;5115088;28;20423;-83
2021/03/12 10:55:46;;;;;;;0.50;0.40;;;20.10;71.90;;;;;;5114880;28;20545;-83
2021/03/12 10:58:24;;;;;;;0.60;0.47;;;21.80;62.30;;;;;;5114976;28;20431;-83
2021/03/12 11:01:13;;;;;;;0.97;0.50;;;22.40;53.70;;;;;;5114950;27;20852;-83
2021/03/12 11:03:42;;;;;;;1.10;0.50;;;22.50;49.00;;;;;;5114880;28;20538;-80
2021/03/12 11:06:09;;;;;;;1.20;0.70;;;22.50;49.30;;;;;;5114707;28;20481;-84
2021/03/12 11:08:35;;;;;;;0.50;0.40;;;22.20;49.00;;;;;;5114745;28;20201;-83
2021/03/12 11:11:05;;;;;;;1.33;0.60;;;20.90;50.40;;;;;;5114732;28;20185;-80
2021/03/12 11:13:31;;;;;;;4.40;0.53;;;19.20;53.50;;;;;;5114933;28;20518;-84
2021/03/12 11:15:57;;;;;;;0.97;0.50;;;18.00;54.00;;;;;;5114534;28;20477;-84
2021/03/12 11:18:26;;;;;;;1.50;0.50;;;17.10;55.10;;;;;;5114584;28;20431;-80
2021/03/12 11:20:53;;;;;;;0.60;0.50;;;16.10;56.90;;;;;;5114390;28;20446;-80
2021/03/12 11:23:19;;;;;;;0.90;0.40;;;15.10;58.70;;;;;;5114471;28;20443;-81
2021/03/12 11:25:46;;;;;;;2.67;0.50;;;14.40;59.80;;;;;;5114317;28;20512;-80
2021/03/12 11:28:12;;;;;;;2.87;0.70;;;13.70;59.20;;;;;;5114047;28;20487;-81
2021/03/12 11:30:38;;;;;;;2.60;0.50;;;13.30;60.90;;;;;;5114051;28;20986;-80
2021/03/12 11:33:05;;;;;;;1.00;0.60;;;12.90;61.50;;;;;;5114349;28;20438;-80
2021/03/12 11:35:32;;;;;;;1.73;0.40;;;12.70;61.30;;;;;;5114433;28;20427;-80
2021/03/12 11:37:59;;;;;;;1.63;0.53;;;12.80;62.30;;;;;;5114268;28;20411;-82
2021/03/12 11:40:26;;;;;;;3.13;0.50;;;12.80;63.70;;;;;;5114251;28;20446;-83
2021/03/12 11:42:52;;;;;;;0.97;0.50;;;12.70;64.00;;;;;;5113874;28;20434;-83
2021/03/12 11:45:20;;;;;;;1.00;0.53;;;12.60;62.50;;;;;;5113796;28;20910;-78
2021/03/12 11:47:47;;;;;;;2.97;0.60;;;12.40;63.20;;;;;;5113754;28;21001;-79
2021/03/12 11:50:16;;;;;;;1.63;1.27;;;12.30;62.00;;;;;;5113929;28;20411;-80
2021/03/12 11:52:42;;;;;;;1.13;0.67;;;12.10;62.90;;;;;;5114081;28;20436;-80
2021/03/12 11:55:11;;;;;;;1.13;0.80;;;12.00;63.90;;;;;;5114583;28;20439;-79
2021/03/12 11:57:37;;;;;;;1.67;0.57;;;11.80;62.00;;;;;;5113634;28;20767;-83
2021/03/12 12:00:06;;;;;;;1.57;0.50;;;11.70;65.20;;;;;;5113934;28;20427;-80
2021/03/12 12:02:32;;;;;;;0.70;0.70;;;11.60;66.60;;;;;;5113623;28;20903;-78
2021/03/12 12:04:58;;;;;;;2.97;1.53;;;11.60;68.50;;;;;;5113885;28;20404;-78
2021/03/12 12:07:25;;;;;;;2.37;0.60;;;11.70;70.40;;;;;;5113735;28;20497;-78
2021/03/12 12:09:51;;;;;;;2.10;0.50;;;11.70;68.90;;;;;;5113869;28;20435;-78
2021/03/12 12:12:19;;;;;;;0.67;0.67;;;11.80;68.90;;;;;;5113875;28;20439;-79
2021/03/12 12:14:46;;;;;;;1.50;0.93;;;11.80;68.40;;;;;;5113521;28;20439;-83
2021/03/12 12:17:13;;;;;;;0.50;0.40;;;11.70;68.50;;;;;;5113757;28;20478;-80
2021/03/12 12:19:40;;;;;;;0.40;0.40;;;11.60;69.50;;;;;;5113789;28;20434;-80
2021/03/12 12:22:07;;;;;;;0.80;0.70;;;11.60;69.30;;;;;;5113697;28;20439;-80
2021/03/12 12:24:34;;;;;;;1.10;0.50;;;11.50;69.00;;;;;;5113589;28;20844;-80
2021/03/12 12:27:00;;;;;;;0.60;0.50;;;11.20;66.90;;;;;;5113561;28;20510;-80
2021/03/12 12:29:27;;;;;;;1.17;0.50;;;11.20;68.90;;;;;;5113145;28;20479;-80
2021/03/12 12:31:53;;;;;;;1.47;0.60;;;11.00;69.00;;;;;;5114746;28;20797;-80
2021/03/12 12:34:19;;;;;;;1.23;0.80;;;11.20;72.70;;;;;;5117437;28;20427;-80
2021/03/12 12:36:46;;;;;;;1.13;0.60;;;11.20;71.90;;;;;;5117299;28;20883;-80
2021/03/12 12:39:13;;;;;;;1.53;0.50;;;11.20;69.40;;;;;;5117739;28;20427;-80
2021/03/12 12:41:40;;;;;;;1.00;0.87;;;11.20;66.20;;;;;;5117620;28;20432;-80
2021/03/12 12:44:07;;;;;;;0.83;0.60;;;11.00;67.60;;;;;;5117579;28;20427;-80
2021/03/12 12:46:35;;;;;;;1.23;0.50;;;10.80;65.80;;;;;;5118124;28;20818;-80
2021/03/12 12:49:01;;;;;;;0.77;0.60;;;10.80;65.50;;;;;;5117482;28;20438;-80
2021/03/12 12:51:28;;;;;;;1.10;0.60;;;10.60;62.00;;;;;;5117439;28;20442;-80
2021/03/12 12:53:54;;;;;;;0.90;0.60;;;10.50;63.70;;;;;;5117426;28;20775;-77
2021/03/12 12:56:20;;;;;;;1.23;0.80;;;10.50;65.60;;;;;;5117295;28;20559;-80
2021/03/12 12:58:53;;;;;;;1.30;0.50;;;10.50;65.00;;;;;;5117259;28;20430;-80
2021/03/12 13:01:24;;;;;;;2.10;0.43;;;10.70;66.00;;;;;;5115506;28;20934;-80